createdAt,value
2023-01-11T06:58:09.632Z,24.6
2023-01-11T06:59:23.936Z,24.3
2023-01-11T07:00:52.791Z,24.9
2023-01-11T07:01:54.539Z,24.3
2023-01-11T07:10:47.352Z,26.4
2023-01-11T07:13:07.525Z,25.1
2023-01-11T07:17:34.656Z,25.1
2023-01-11T07:18:36.029Z,24.4
2023-01-11T07:19:37.435Z,24.2
2023-01-11T07:20:38.951Z,24.1
2023-01-11T07:21:40.449Z,24
2023-01-11T07:22:41.869Z,24.1
2023-01-11T07:23:43.201Z,24
2023-01-11T07:24:45.912Z,24.1
2023-01-11T07:25:50.029Z,24.1
2023-01-11T07:26:51.583Z,24.1
2023-01-11T07:27:53.056Z,24.1
2023-01-11T07:28:54.408Z,24.1
2023-01-11T07:29:55.755Z,24.1
2023-01-11T07:30:59.284Z,24.1
2023-01-11T07:32:01.566Z,24.1
2023-01-11T07:33:03.044Z,24.2
2023-01-11T07:34:04.454Z,24.1
2023-01-11T07:35:05.801Z,24.1
2023-01-11T07:36:07.134Z,24.1
2023-01-11T07:37:08.570Z,24.1
2023-01-11T07:38:30.793Z,24.1
2023-01-11T07:39:42.658Z,24.1
2023-01-11T07:40:45.476Z,24.1
2023-01-11T07:41:46.958Z,24.1
2023-01-11T07:42:48.422Z,24.1
2023-01-11T07:43:49.787Z,24.1
2023-01-11T07:44:51.112Z,24.1
2023-01-11T07:45:52.870Z,24.1
2023-01-11T07:46:54.901Z,24.1
2023-01-11T07:47:56.564Z,24.1
2023-01-11T07:48:58.124Z,24
2023-01-11T07:49:59.617Z,24
2023-01-11T07:51:01.139Z,24
2023-01-11T07:52:02.514Z,24
2023-01-11T07:53:04.014Z,24.1
2023-01-11T07:54:05.467Z,24.1
2023-01-11T07:55:06.948Z,24.1
2023-01-11T07:56:08.339Z,24.1
2023-01-11T07:57:09.851Z,24.1
2023-01-11T07:58:11.347Z,24.1
2023-01-11T07:59:12.729Z,24.1
2023-01-11T08:00:14.163Z,24.1
2023-01-11T08:01:15.606Z,23.9
2023-01-11T08:02:17.037Z,24
2023-01-11T08:03:18.669Z,24
2023-01-11T08:04:20.291Z,24
2023-01-11T08:05:21.762Z,24.1
2023-01-11T08:06:23.114Z,24
2023-01-11T08:07:24.587Z,24
2023-01-11T08:08:26.033Z,24
2023-01-11T08:09:27.536Z,23.9
2023-01-11T08:10:29.030Z,23.9
2023-01-11T08:11:30.998Z,23.9
2023-01-11T08:12:32.366Z,23.9
2023-01-11T08:13:33.865Z,23.9
2023-01-11T08:14:35.354Z,24
2023-01-11T08:15:36.892Z,23.9
2023-01-11T08:16:38.410Z,24
2023-01-11T08:17:39.805Z,23.9
2023-01-11T08:18:41.223Z,24
2023-01-11T08:19:42.612Z,24
2023-01-11T08:20:44.173Z,24
2023-01-11T08:21:45.636Z,23.9
2023-01-11T08:22:47.088Z,23.9
2023-01-11T08:23:48.532Z,23.9
2023-01-11T08:24:49.979Z,23.9
2023-01-11T08:25:51.404Z,23.9
2023-01-11T08:26:52.897Z,23.8
2023-01-11T08:27:54.374Z,23.9
2023-01-11T08:28:55.729Z,23.9
2023-01-11T08:29:57.141Z,23.9
2023-01-11T08:30:58.628Z,23.9
2023-01-11T08:32:00.135Z,23.9
2023-01-11T08:33:01.626Z,23.9
2023-01-11T08:34:03.092Z,23.9
2023-01-11T08:35:04.501Z,23.9
2023-01-11T08:36:05.961Z,23.9
2023-01-11T08:37:07.345Z,24
2023-01-11T08:38:08.782Z,24.1
2023-01-11T08:39:10.237Z,24.1
2023-01-11T08:40:11.686Z,24.1
2023-01-11T08:41:13.423Z,24.1
2023-01-11T08:42:15.283Z,24.1
2023-01-11T08:43:16.854Z,24.1
2023-01-11T08:44:22.409Z,24.1
2023-01-11T08:45:35.610Z,24
2023-01-11T08:46:37.167Z,24.1
2023-01-11T08:47:38.763Z,24
2023-01-11T08:48:40.294Z,24.1
2023-01-11T08:49:41.744Z,23.9
2023-01-11T08:50:43.204Z,24
2023-01-11T08:51:44.570Z,24
2023-01-11T08:52:46.063Z,24.1
2023-01-11T08:53:47.540Z,24.1
2023-01-11T08:54:49.041Z,24.1
2023-01-11T08:55:50.451Z,24.1
2023-01-11T08:56:51.939Z,24.1
2023-01-11T08:57:53.390Z,24.1
2023-01-11T08:58:54.939Z,24
2023-01-11T08:59:56.388Z,24
2023-01-11T09:00:57.806Z,23.9
2023-01-11T09:01:59.294Z,24
2023-01-11T09:03:00.881Z,24
2023-01-11T09:04:07.118Z,23.9
2023-01-11T09:05:25.072Z,24
2023-01-11T09:06:26.598Z,24.1
2023-01-11T09:07:28.006Z,24
2023-01-11T09:08:29.468Z,24
2023-01-11T09:09:30.889Z,24.1
2023-01-11T09:10:32.345Z,23.9
2023-01-11T09:11:33.734Z,23.9
2023-01-11T09:12:35.237Z,24
2023-01-11T09:13:36.665Z,23.9
2023-01-11T09:14:38.024Z,23.9
2023-01-11T09:15:39.431Z,23.9
2023-01-11T09:16:41.007Z,23.9
2023-01-11T09:17:42.414Z,23.9
2023-01-11T09:18:43.892Z,23.9
2023-01-11T09:19:45.263Z,24
2023-01-11T09:20:46.542Z,23.9
2023-01-11T09:21:47.961Z,23.9
2023-01-11T09:22:51.939Z,23.9
2023-01-11T09:23:54.447Z,23.9
2023-01-11T09:24:55.951Z,23.9
2023-01-11T09:25:57.352Z,23.9
2023-01-11T09:26:58.878Z,23.9
2023-01-11T09:28:00.465Z,24
2023-01-11T09:29:02.055Z,24.1
2023-01-11T09:30:03.600Z,24.1
2023-01-11T09:31:05.098Z,24
2023-01-11T09:32:06.604Z,24
2023-01-11T09:33:07.974Z,24
2023-01-11T09:34:09.476Z,24.1
2023-01-11T09:35:10.963Z,24
2023-01-11T09:36:12.452Z,23.9
2023-01-11T09:37:13.933Z,24
2023-01-11T09:38:15.329Z,23.9
2023-01-11T09:39:16.771Z,24
2023-01-11T09:40:18.233Z,24
2023-01-11T09:41:19.657Z,24
2023-01-11T09:42:21.138Z,24.1
2023-01-11T09:43:22.642Z,24
2023-01-11T09:44:24.087Z,24.1
2023-01-11T09:45:25.498Z,24.1
2023-01-11T09:46:27.028Z,24.1
2023-01-11T09:47:28.664Z,24.1
2023-01-11T09:48:30.037Z,24.1
2023-01-11T09:49:31.500Z,24
2023-01-11T09:50:32.933Z,24.1
2023-01-11T09:51:34.354Z,24
2023-01-11T09:52:35.910Z,24
2023-01-11T09:53:37.349Z,24
2023-01-11T09:54:38.866Z,24
2023-01-11T09:55:40.208Z,24
2023-01-11T09:56:41.615Z,24
2023-01-11T09:57:43.169Z,24
2023-01-11T09:58:44.769Z,24
2023-01-11T09:59:46.202Z,24
2023-01-11T10:00:47.561Z,24.1
2023-01-11T10:01:49.077Z,24.1
2023-01-11T10:02:50.571Z,24.1
2023-01-11T10:03:51.964Z,24.1
2023-01-11T10:04:53.505Z,24.1
2023-01-11T10:05:55.041Z,24.1
2023-01-11T10:06:56.395Z,24.1
2023-01-11T10:18:23.847Z,24.3
2023-01-11T10:20:18.263Z,24.2
2023-01-11T10:21:19.719Z,24.1
2023-01-11T10:22:21.106Z,24.2
2023-01-11T10:23:22.607Z,24.1
2023-01-11T10:24:24.023Z,24.1
2023-01-11T10:25:25.429Z,24.1
2023-01-11T10:26:26.892Z,24.1
2023-01-11T10:27:28.384Z,24.1
2023-01-11T10:28:29.791Z,24.2
2023-01-11T10:29:31.256Z,24.1
2023-01-11T10:30:32.826Z,24.1
2023-01-11T10:31:34.349Z,24.2
2023-01-11T10:32:36.014Z,24.2
2023-01-11T10:33:37.525Z,24.2
2023-01-11T10:34:38.986Z,24.2
2023-01-11T10:35:40.462Z,24.1
2023-01-11T10:36:41.883Z,24.2
2023-01-11T10:37:43.296Z,24.2
2023-01-11T10:38:44.761Z,24.1
2023-01-11T10:39:46.263Z,24.3
2023-01-11T10:40:47.711Z,24.2
2023-01-11T10:41:49.111Z,24.2
2023-01-11T10:42:50.477Z,24.2
2023-01-11T10:43:52.019Z,24.3
2023-01-11T10:44:53.630Z,24.2
2023-01-11T10:45:55.169Z,24.1
2023-01-11T10:46:56.758Z,24.1
2023-01-11T10:47:58.259Z,24.1
2023-01-11T10:48:59.755Z,24.1
2023-01-11T10:50:01.207Z,24.1
2023-01-11T10:51:04.157Z,23.9
2023-01-11T10:52:08.375Z,24
2023-01-11T10:53:09.811Z,24
2023-01-11T10:54:11.316Z,24
2023-01-11T10:55:12.819Z,24.1
2023-01-11T10:56:14.315Z,24.1
2023-01-11T10:57:15.768Z,24
2023-01-11T10:58:17.314Z,24
2023-01-11T10:59:21.206Z,24
2023-01-11T11:00:22.681Z,24
2023-01-11T11:01:24.385Z,24
2023-01-11T11:02:26.297Z,24.1
2023-01-11T11:03:28.137Z,24.1
2023-01-11T11:04:29.626Z,24.1
2023-01-11T11:05:31.131Z,24.1
2023-01-11T11:06:32.907Z,24.1
2023-01-11T11:07:34.383Z,24.1
2023-01-11T11:08:35.866Z,24.1
2023-01-11T11:09:38.564Z,24.2
2023-01-11T11:10:40.024Z,24.2
2023-01-11T11:11:41.506Z,24.2
2023-01-11T11:12:43.017Z,24.2
2023-01-11T11:13:44.480Z,24.3
2023-01-11T11:14:46.044Z,24.2
2023-01-11T11:15:48.074Z,24.1
2023-01-11T11:16:49.598Z,24.1
2023-01-11T11:17:51.010Z,24.2
2023-01-11T11:18:52.576Z,24.2
2023-01-11T11:19:54.061Z,24.3
2023-01-11T11:20:55.555Z,24.3
2023-01-11T11:21:57.008Z,24.3
2023-01-11T11:22:58.497Z,24.2
2023-01-11T11:23:59.959Z,24.2
2023-01-11T11:25:01.462Z,24.3
2023-01-11T11:26:02.907Z,24.2
2023-01-11T11:27:04.493Z,24.2
2023-01-11T11:28:06.206Z,24.3
2023-01-11T11:29:07.704Z,24.2
2023-01-11T11:30:09.193Z,24.2
2023-01-11T11:31:10.645Z,24.3
2023-01-11T11:32:12.091Z,24.2
2023-01-11T11:33:13.431Z,24.3
2023-01-11T11:34:14.908Z,24.3
2023-01-11T11:35:16.347Z,24.3
2023-01-11T11:36:17.836Z,24.3
2023-01-11T11:37:19.322Z,24.3
2023-01-11T11:39:36.707Z,24.8
